sensor_id;sensor_type;location;lat;lon;timestamp;pressure;altitude;pressure_sealevel;temperature;humidity
10064;BME280;5071;52.360;13.134;2023-11-21T00:02:44;100333.97;;;8.42;100.00
10064;BME280;5071;52.360;13.134;2023-11-21T00:07:46;100332.19;;;8.41;100.00
10064;BME280;5071;52.360;13.134;2023-11-21T00:12:49;100333.97;;;8.42;100.00
10064;BME280;5071;52.360;13.134;2023-11-21T00:17:52;100339.16;;;8.50;100.00
10064;BME280;5071;52.360;13.134;2023-11-21T00:22:55;100347.00;;;8.61;100.00
10064;BME280;5071;52.360;13.134;2023-11-21T00:27:57;100347.19;;;8.42;100.00
10064;BME280;5071;52.360;13.134;2023-11-21T00:33:00;100348.09;;;8.38;100.00
10064;BME280;5071;52.360;13.134;2023-11-21T00:38:03;100347.25;;;8.33;100.00
10064;BME280;5071;52.360;13.134;2023-11-21T00:43:05;100355.03;;;8.50;100.00
10064;BME280;5071;52.360;13.134;2023-11-21T00:48:08;100362.19;;;8.42;100.00
10064;BME280;5071;52.360;13.134;2023-11-21T00:53:11;100364.81;;;8.43;100.00
10064;BME280;5071;52.360;13.134;2023-11-21T00:58:13;100381.75;;;8.17;100.00
10064;BME280;5071;52.360;13.134;2023-11-21T01:03:16;100387.38;;;7.76;100.00
10064;BME280;5071;52.360;13.134;2023-11-21T01:08:19;100389.34;;;7.38;100.00
10064;BME280;5071;52.360;13.134;2023-11-21T01:13:21;100397.13;;;7.60;100.00
10064;BME280;5071;52.360;13.134;2023-11-21T01:18:25;100411.25;;;7.57;100.00
10064;BME280;5071;52.360;13.134;2023-11-21T01:23:27;100413.81;;;7.70;100.00
10064;BME280;5071;52.360;13.134;2023-11-21T01:28:29;100421.84;;;7.53;100.00
10064;BME280;5071;52.360;13.134;2023-11-21T01:33:33;100427.16;;;7.42;100.00
10064;BME280;5071;52.360;13.134;2023-11-21T01:38:36;100428.16;;;7.18;100.00
10064;BME280;5071;52.360;13.134;2023-11-21T01:43:38;100428.16;;;7.16;100.00
10064;BME280;5071;52.360;13.134;2023-11-21T01:48:41;100436.16;;;6.72;100.00
10064;BME280;5071;52.360;13.134;2023-11-21T01:53:44;100430.88;;;6.87;100.00
10064;BME280;5071;52.360;13.134;2023-11-21T01:58:46;100443.22;;;6.62;100.00
10064;BME280;5071;52.360;13.134;2023-11-21T02:03:50;100449.38;;;6.69;100.00
10064;BME280;5071;52.360;13.134;2023-11-21T02:08:53;100459.06;;;6.67;100.00
10064;BME280;5071;52.360;13.134;2023-11-21T02:13:55;100463.44;;;6.71;100.00
10064;BME280;5071;52.360;13.134;2023-11-21T02:18:59;100473.09;;;6.32;100.00
10064;BME280;5071;52.360;13.134;2023-11-21T02:24:04;100476.59;;;6.09;100.00
10064;BME280;5071;52.360;13.134;2023-11-21T02:29:06;100480.03;;;5.93;100.00
10064;BME280;5071;52.360;13.134;2023-11-21T02:34:08;100482.75;;;5.99;100.00
10064;BME280;5071;52.360;13.134;2023-11-21T02:39:11;100484.53;;;6.28;100.00
10064;BME280;5071;52.360;13.134;2023-11-21T02:44:14;100484.50;;;6.05;100.00
10064;BME280;5071;52.360;13.134;2023-11-21T02:49:16;100487.13;;;6.00;100.00
10064;BME280;5071;52.360;13.134;2023-11-21T02:54:19;100490.59;;;5.94;100.00
10064;BME280;5071;52.360;13.134;2023-11-21T02:59:22;100486.22;;;5.96;100.00
10064;BME280;5071;52.360;13.134;2023-11-21T03:04:24;100487.91;;;5.79;100.00
10064;BME280;5071;52.360;13.134;2023-11-21T03:09:27;100494.03;;;5.73;100.00
10064;BME280;5071;52.360;13.134;2023-11-21T03:14:31;100492.28;;;5.74;100.00
10064;BME280;5071;52.360;13.134;2023-11-21T03:19:32;100503.66;;;5.68;100.00
10064;BME280;5071;52.360;13.134;2023-11-21T03:24:39;100508.91;;;5.60;100.00
10064;BME280;5071;52.360;13.134;2023-11-21T03:29:41;100516.84;;;5.74;100.00
10064;BME280;5071;52.360;13.134;2023-11-21T03:34:53;100527.47;;;5.90;100.00
10064;BME280;5071;52.360;13.134;2023-11-21T03:39:57;100540.56;;;5.71;100.00
10064;BME280;5071;52.360;13.134;2023-11-21T03:45:00;100552.13;;;6.04;100.00
10064;BME280;5071;52.360;13.134;2023-11-21T03:50:02;100556.44;;;5.88;100.00
10064;BME280;5071;52.360;13.134;2023-11-21T03:55:06;100562.63;;;5.96;100.00
10064;BME280;5071;52.360;13.134;2023-11-21T04:00:10;100559.06;;;5.90;100.00
10064;BME280;5071;52.360;13.134;2023-11-21T04:05:12;100568.56;;;5.52;100.00
10064;BME280;5071;52.360;13.134;2023-11-21T04:10:17;100578.19;;;5.53;100.00
10064;BME280;5071;52.360;13.134;2023-11-21T04:15:19;100573.88;;;5.64;100.00
10064;BME280;5071;52.360;13.134;2023-11-21T04:20:21;100588.72;;;5.49;100.00
10064;BME280;5071;52.360;13.134;2023-11-21T04:25:25;100591.22;;;5.30;100.00
10064;BME280;5071;52.360;13.134;2023-11-21T04:30:27;100601.75;;;5.25;100.00
10064;BME280;5071;52.360;13.134;2023-11-21T04:35:29;100615.84;;;5.35;100.00
10064;BME280;5071;52.360;13.134;2023-11-21T04:40:33;100607.84;;;5.23;100.00
10064;BME280;5071;52.360;13.134;2023-11-21T04:45:35;100633.22;;;5.18;100.00
10064;BME280;5071;52.360;13.134;2023-11-21T04:50:38;100625.28;;;5.12;100.00
10064;BME280;5071;52.360;13.134;2023-11-21T04:55:41;100623.56;;;5.11;100.00
10064;BME280;5071;52.360;13.134;2023-11-21T05:00:43;100629.72;;;5.13;100.00
10064;BME280;5071;52.360;13.134;2023-11-21T05:05:45;100643.06;;;5.43;100.00
10064;BME280;5071;52.360;13.134;2023-11-21T05:10:49;100651.56;;;5.05;100.00
10064;BME280;5071;52.360;13.134;2023-11-21T05:15:51;100672.00;;;5.40;100.00
10064;BME280;5071;52.360;13.134;2023-11-21T05:20:53;100676.94;;;5.00;100.00
10064;BME280;5071;52.360;13.134;2023-11-21T05:25:56;100668.19;;;5.00;100.00
10064;BME280;5071;52.360;13.134;2023-11-21T05:30:58;100680.38;;;4.90;100.00
10064;BME280;5071;52.360;13.134;2023-11-21T05:36:17;100682.03;;;4.83;100.00
10064;BME280;5071;52.360;13.134;2023-11-21T05:41:20;100696.94;;;4.86;100.00
10064;BME280;5071;52.360;13.134;2023-11-21T05:46:22;100695.25;;;4.91;100.00
10064;BME280;5071;52.360;13.134;2023-11-21T05:51:24;100698.91;;;5.05;100.00
10064;BME280;5071;52.360;13.134;2023-11-21T05:56:28;100712.81;;;4.92;100.00
10064;BME280;5071;52.360;13.134;2023-11-21T06:01:30;100717.38;;;5.12;100.00
10064;BME280;5071;52.360;13.134;2023-11-21T06:06:32;100727.00;;;5.10;100.00
10064;BME280;5071;52.360;13.134;2023-11-21T06:11:35;100737.31;;;4.90;100.00
10064;BME280;5071;52.360;13.134;2023-11-21T06:16:37;100740.84;;;4.89;100.00
10064;BME280;5071;52.360;13.134;2023-11-21T06:21:40;100739.06;;;4.89;100.00
10064;BME280;5071;52.360;13.134;2023-11-21T06:26:44;100753.84;;;4.78;100.00
10064;BME280;5071;52.360;13.134;2023-11-21T06:31:46;100759.09;;;4.76;100.00
10064;BME280;5071;52.360;13.134;2023-11-21T06:36:48;100786.34;;;4.83;100.00
10064;BME280;5071;52.360;13.134;2023-11-21T06:41:52;100789.66;;;4.66;100.00
10064;BME280;5071;52.360;13.134;2023-11-21T06:46:54;100795.84;;;4.70;100.00
10064;BME280;5071;52.360;13.134;2023-11-21T06:51:57;100798.50;;;4.73;100.00
10064;BME280;5071;52.360;13.134;2023-11-21T06:57:00;100813.38;;;4.70;100.00
10064;BME280;5071;52.360;13.134;2023-11-21T07:02:03;100805.72;;;4.91;100.00
10064;BME280;5071;52.360;13.134;2023-11-21T07:07:06;100809.59;;;4.52;100.00
10064;BME280;5071;52.360;13.134;2023-11-21T07:12:10;100814.28;;;4.73;100.00
10064;BME280;5071;52.360;13.134;2023-11-21T07:17:12;100818.41;;;4.53;100.00
10064;BME280;5071;52.360;13.134;2023-11-21T07:22:14;100824.69;;;4.64;100.00
10064;BME280;5071;52.360;13.134;2023-11-21T07:27:18;100825.03;;;4.93;100.00
10064;BME280;5071;52.360;13.134;2023-11-21T07:32:20;100831.19;;;4.92;100.00
10064;BME280;5071;52.360;13.134;2023-11-21T07:37:23;100843.28;;;4.79;100.00
10064;BME280;5071;52.360;13.134;2023-11-21T07:42:26;100842.38;;;4.77;100.00
10064;BME280;5071;52.360;13.134;2023-11-21T07:47:28;100853.94;;;4.90;100.00
10064;BME280;5071;52.360;13.134;2023-11-21T07:52:30;100852.69;;;4.60;100.00
10064;BME280;5071;52.360;13.134;2023-11-21T07:57:34;100847.63;;;4.76;100.00
10064;BME280;5071;52.360;13.134;2023-11-21T08:02:35;100861.63;;;4.75;100.00
10064;BME280;5071;52.360;13.134;2023-11-21T08:07:38;100855.75;;;4.97;100.00
10064;BME280;5071;52.360;13.134;2023-11-21T08:12:41;100868.53;;;4.66;100.00
10064;BME280;5071;52.360;13.134;2023-11-21T08:17:43;100884.34;;;4.70;100.00
10064;BME280;5071;52.360;13.134;2023-11-21T08:22:45;100884.94;;;4.50;100.00
10064;BME280;5071;52.360;13.134;2023-11-21T08:27:48;100885.75;;;4.46;100.00
10064;BME280;5071;52.360;13.134;2023-11-21T08:32:50;100897.13;;;4.43;99.71
10064;BME280;5071;52.360;13.134;2023-11-21T08:37:52;100898.06;;;4.50;100.00
10064;BME280;5071;52.360;13.134;2023-11-21T08:42:55;100897.44;;;4.66;99.17
10064;BME280;5071;52.360;13.134;2023-11-21T08:47:57;100903.59;;;4.65;100.00
10064;BME280;5071;52.360;13.134;2023-11-21T08:52:59;100910.31;;;4.48;99.40
10064;BME280;5071;52.360;13.134;2023-11-21T08:58:02;100906.47;;;4.85;100.00
10064;BME280;5071;52.360;13.134;2023-11-21T09:03:05;100916.66;;;4.61;100.00
10064;BME280;5071;52.360;13.134;2023-11-21T09:08:07;100930.59;;;4.55;100.00
10064;BME280;5071;52.360;13.134;2023-11-21T09:13:10;100935.06;;;4.62;100.00
10064;BME280;5071;52.360;13.134;2023-11-21T09:18:13;100949.47;;;4.89;100.00
10064;BME280;5071;52.360;13.134;2023-11-21T09:23:15;100949.22;;;4.71;100.00
10064;BME280;5071;52.360;13.134;2023-11-21T09:28:18;100958.59;;;4.53;100.00
10064;BME280;5071;52.360;13.134;2023-11-21T09:33:20;100969.94;;;4.52;100.00
10064;BME280;5071;52.360;13.134;2023-11-21T09:38:22;100975.25;;;4.54;100.00
10064;BME280;5071;52.360;13.134;2023-11-21T09:43:28;100979.28;;;4.88;100.00
10064;BME280;5071;52.360;13.134;2023-11-21T09:48:31;100980.81;;;4.74;100.00
10064;BME280;5071;52.360;13.134;2023-11-21T09:53:34;100983.53;;;4.80;100.00
10064;BME280;5071;52.360;13.134;2023-11-21T09:58:38;100985.72;;;4.52;100.00
10064;BME280;5071;52.360;13.134;2023-11-21T10:03:40;100992.72;;;4.52;100.00
10064;BME280;5071;52.360;13.134;2023-11-21T10:08:42;100998.72;;;4.41;100.00
10064;BME280;5071;52.360;13.134;2023-11-21T10:13:59;100995.94;;;4.35;100.00
10064;BME280;5071;52.360;13.134;2023-11-21T10:19:03;100992.81;;;4.56;100.00
10064;BME280;5071;52.360;13.134;2023-11-21T10:24:12;100988.78;;;4.80;100.00
10064;BME280;5071;52.360;13.134;2023-11-21T10:29:16;100994.97;;;4.82;100.00
10064;BME280;5071;52.360;13.134;2023-11-21T10:34:19;101002.75;;;4.76;100.00
10064;BME280;5071;52.360;13.134;2023-11-21T10:39:22;101004.78;;;4.95;100.00
10064;BME280;5071;52.360;13.134;2023-11-21T10:44:25;101015.50;;;4.51;100.00
10064;BME280;5071;52.360;13.134;2023-11-21T10:49:28;101009.31;;;4.47;100.00
10064;BME280;5071;52.360;13.134;2023-11-21T10:54:30;101017.25;;;4.52;100.00
10064;BME280;5071;52.360;13.134;2023-11-21T10:59:34;101028.47;;;4.95;100.00
10064;BME280;5071;52.360;13.134;2023-11-21T11:04:37;101029.38;;;4.97;100.00
10064;BME280;5071;52.360;13.134;2023-11-21T11:09:39;101039.75;;;4.86;100.00
10064;BME280;5071;52.360;13.134;2023-11-21T11:14:43;101029.06;;;4.76;100.00
10064;BME280;5071;52.360;13.134;2023-11-21T11:19:45;101036.88;;;4.73;100.00
10064;BME280;5071;52.360;13.134;2023-11-21T11:25:14;101036.63;;;4.57;100.00
10064;BME280;5071;52.360;13.134;2023-11-21T11:30:36;101044.84;;;4.76;100.00
10064;BME280;5071;52.360;13.134;2023-11-21T11:35:46;101055.84;;;4.53;100.00
10064;BME280;5071;52.360;13.134;2023-11-21T11:40:53;101063.09;;;4.66;100.00
10064;BME280;5071;52.360;13.134;2023-11-21T11:45:57;101076.97;;;4.59;100.00
10064;BME280;5071;52.360;13.134;2023-11-21T11:51:04;101083.84;;;4.51;100.00
10064;BME280;5071;52.360;13.134;2023-11-21T11:56:21;101097.63;;;4.38;100.00
10064;BME280;5071;52.360;13.134;2023-11-21T12:01:26;101092.66;;;4.53;100.00
10064;BME280;5071;52.360;13.134;2023-11-21T12:06:33;101108.31;;;4.48;100.00
10064;BME280;5071;52.360;13.134;2023-11-21T12:11:36;101114.88;;;4.23;100.00
10064;BME280;5071;52.360;13.134;2023-11-21T12:16:40;101123.56;;;4.19;100.00
10064;BME280;5071;52.360;13.134;2023-11-21T12:21:43;101133.56;;;3.95;100.00
10064;BME280;5071;52.360;13.134;2023-11-21T12:26:45;101134.94;;;3.77;100.00
10064;BME280;5071;52.360;13.134;2023-11-21T12:31:50;101145.06;;;4.00;100.00
10064;BME280;5071;52.360;13.134;2023-11-21T12:36:52;101145.50;;;3.80;100.00
10064;BME280;5071;52.360;13.134;2023-11-21T12:41:54;101148.78;;;3.70;100.00
10064;BME280;5071;52.360;13.134;2023-11-21T12:46:59;101154.41;;;3.47;100.00
10064;BME280;5071;52.360;13.134;2023-11-21T12:52:01;101162.75;;;3.69;100.00
10064;BME280;5071;52.360;13.134;2023-11-21T12:57:04;101159.88;;;3.58;100.00
10064;BME280;5071;52.360;13.134;2023-11-21T13:02:08;101170.34;;;3.55;100.00
10064;BME280;5071;52.360;13.134;2023-11-21T13:07:10;101179.66;;;3.42;100.00
10064;BME280;5071;52.360;13.134;2023-11-21T13:12:13;101180.31;;;3.70;100.00
10064;BME280;5071;52.360;13.134;2023-11-21T13:17:17;101191.13;;;3.85;100.00
10064;BME280;5071;52.360;13.134;2023-11-21T13:22:19;101188.59;;;3.50;100.00
10064;BME280;5071;52.360;13.134;2023-11-21T13:27:21;101198.97;;;3.84;100.00
10064;BME280;5071;52.360;13.134;2023-11-21T13:32:25;101204.72;;;3.67;100.00
10064;BME280;5071;52.360;13.134;2023-11-21T13:37:27;101197.06;;;3.39;100.00
10064;BME280;5071;52.360;13.134;2023-11-21T13:42:29;101202.84;;;3.62;100.00
10064;BME280;5071;52.360;13.134;2023-11-21T13:47:32;101205.06;;;3.45;100.00
10064;BME280;5071;52.360;13.134;2023-11-21T13:52:35;101223.28;;;3.75;100.00
10064;BME280;5071;52.360;13.134;2023-11-21T13:57:37;101230.97;;;3.67;100.00
10064;BME280;5071;52.360;13.134;2023-11-21T14:02:41;101250.34;;;3.36;100.00
10064;BME280;5071;52.360;13.134;2023-11-21T14:07:43;101252.47;;;3.51;100.00
10064;BME280;5071;52.360;13.134;2023-11-21T14:12:46;101262.19;;;3.55;100.00
10064;BME280;5071;52.360;13.134;2023-11-21T14:17:50;101269.47;;;3.30;100.00
10064;BME280;5071;52.360;13.134;2023-11-21T14:22:52;101276.84;;;3.47;100.00
10064;BME280;5071;52.360;13.134;2023-11-21T14:27:54;101292.03;;;3.59;100.00
10064;BME280;5071;52.360;13.134;2023-11-21T14:32:59;101291.06;;;3.55;100.00
10064;BME280;5071;52.360;13.134;2023-11-21T14:38:01;101279.91;;;3.29;100.00
10064;BME280;5071;52.360;13.134;2023-11-21T14:43:04;101302.75;;;3.01;100.00
10064;BME280;5071;52.360;13.134;2023-11-21T14:48:08;101307.19;;;3.02;100.00
10064;BME280;5071;52.360;13.134;2023-11-21T14:53:12;101318.19;;;3.22;100.00
10064;BME280;5071;52.360;13.134;2023-11-21T14:58:14;101315.81;;;3.00;100.00
10064;BME280;5071;52.360;13.134;2023-11-21T15:03:18;101331.75;;;2.76;100.00
10064;BME280;5071;52.360;13.134;2023-11-21T15:08:20;101350.59;;;2.92;100.00
10064;BME280;5071;52.360;13.134;2023-11-21T15:13:22;101352.00;;;3.11;100.00
10064;BME280;5071;52.360;13.134;2023-11-21T15:18:26;101361.50;;;3.06;100.00
10064;BME280;5071;52.360;13.134;2023-11-21T15:23:28;101366.50;;;2.99;100.00
10064;BME280;5071;52.360;13.134;2023-11-21T15:28:31;101366.50;;;2.68;100.00
10064;BME280;5071;52.360;13.134;2023-11-21T15:33:35;101386.78;;;2.76;100.00
10064;BME280;5071;52.360;13.134;2023-11-21T15:38:37;101396.47;;;2.49;100.00
10064;BME280;5071;52.360;13.134;2023-11-21T15:43:39;101403.41;;;2.47;100.00
10064;BME280;5071;52.360;13.134;2023-11-21T15:48:43;101407.88;;;2.50;100.00
10064;BME280;5071;52.360;13.134;2023-11-21T15:53:45;101408.13;;;2.30;100.00
10064;BME280;5071;52.360;13.134;2023-11-21T15:58:47;101412.34;;;2.25;100.00
10064;BME280;5071;52.360;13.134;2023-11-21T16:03:53;101412.81;;;2.13;100.00
10064;BME280;5071;52.360;13.134;2023-11-21T16:08:55;101433.50;;;2.31;100.00
10064;BME280;5071;52.360;13.134;2023-11-21T16:13:57;101432.59;;;2.31;100.00
10064;BME280;5071;52.360;13.134;2023-11-21T16:19:01;101443.28;;;2.37;100.00
10064;BME280;5071;52.360;13.134;2023-11-21T16:24:04;101461.97;;;2.48;100.00
10064;BME280;5071;52.360;13.134;2023-11-21T16:29:06;101463.63;;;2.46;100.00
10064;BME280;5071;52.360;13.134;2023-11-21T16:34:13;101484.88;;;2.28;100.00
10064;BME280;5071;52.360;13.134;2023-11-21T16:39:21;101489.25;;;2.27;100.00
10064;BME280;5071;52.360;13.134;2023-11-21T16:44:23;101493.69;;;2.30;100.00
10064;BME280;5071;52.360;13.134;2023-11-21T16:49:26;101501.41;;;2.27;100.00
10064;BME280;5071;52.360;13.134;2023-11-21T16:54:29;101503.34;;;2.32;100.00
10064;BME280;5071;52.360;13.134;2023-11-21T16:59:31;101510.59;;;2.40;100.00
10064;BME280;5071;52.360;13.134;2023-11-21T17:04:34;101524.84;;;2.48;100.00
10064;BME280;5071;52.360;13.134;2023-11-21T17:09:36;101529.66;;;2.36;100.00
10064;BME280;5071;52.360;13.134;2023-11-21T17:14:39;101538.47;;;2.38;100.00
10064;BME280;5071;52.360;13.134;2023-11-21T17:19:43;101542.72;;;2.34;100.00
10064;BME280;5071;52.360;13.134;2023-11-21T17:24:46;101554.72;;;2.27;100.00
10064;BME280;5071;52.360;13.134;2023-11-21T17:29:49;101565.78;;;2.44;100.00
10064;BME280;5071;52.360;13.134;2023-11-21T17:34:55;101583.41;;;2.24;99.17
10064;BME280;5071;52.360;13.134;2023-11-21T17:39:57;101589.22;;;2.16;98.61
10064;BME280;5071;52.360;13.134;2023-11-21T17:44:59;101587.66;;;2.21;96.90
10064;BME280;5071;52.360;13.134;2023-11-21T17:50:03;101600.94;;;2.25;94.59
10064;BME280;5071;52.360;13.134;2023-11-21T17:55:05;101613.72;;;2.18;93.54
10064;BME280;5071;52.360;13.134;2023-11-21T18:00:08;101628.56;;;2.17;95.28
10064;BME280;5071;52.360;13.134;2023-11-21T18:05:12;101640.72;;;2.15;98.43
10064;BME280;5071;52.360;13.134;2023-11-21T18:10:14;101640.59;;;2.12;98.97
10064;BME280;5071;52.360;13.134;2023-11-21T18:15:16;101640.84;;;2.18;97.85
10064;BME280;5071;52.360;13.134;2023-11-21T18:20:19;101651.84;;;2.33;98.66
10064;BME280;5071;52.360;13.134;2023-11-21T18:25:21;101665.88;;;2.11;96.52
10064;BME280;5071;52.360;13.134;2023-11-21T18:30:23;101675.31;;;2.30;95.88
10064;BME280;5071;52.360;13.134;2023-11-21T18:35:27;101686.19;;;2.17;93.55
10064;BME280;5071;52.360;13.134;2023-11-21T18:40:29;101690.94;;;1.81;92.75
10064;BME280;5071;52.360;13.134;2023-11-21T18:45:31;101695.50;;;1.86;92.94
10064;BME280;5071;52.360;13.134;2023-11-21T18:50:34;101719.44;;;1.73;92.17
10064;BME280;5071;52.360;13.134;2023-11-21T18:55:36;101731.56;;;1.71;92.40
10064;BME280;5071;52.360;13.134;2023-11-21T19:00:38;101736.44;;;1.62;93.25
10064;BME280;5071;52.360;13.134;2023-11-21T19:05:42;101727.50;;;1.79;94.07
10064;BME280;5071;52.360;13.134;2023-11-21T19:10:44;101735.72;;;1.88;94.07
10064;BME280;5071;52.360;13.134;2023-11-21T19:15:46;101753.09;;;1.86;94.65
10064;BME280;5071;52.360;13.134;2023-11-21T19:20:49;101763.63;;;1.65;91.75
10064;BME280;5071;52.360;13.134;2023-11-21T19:25:51;101773.66;;;1.77;91.57
10064;BME280;5071;52.360;13.134;2023-11-21T19:30:53;101778.84;;;1.75;93.42
10064;BME280;5071;52.360;13.134;2023-11-21T19:35:57;101783.44;;;1.81;93.63
10064;BME280;5071;52.360;13.134;2023-11-21T19:40:59;101796.00;;;1.69;93.57
10064;BME280;5071;52.360;13.134;2023-11-21T19:46:00;101803.94;;;1.49;94.22
10064;BME280;5071;52.360;13.134;2023-11-21T19:51:04;101804.63;;;1.24;92.03
10064;BME280;5071;52.360;13.134;2023-11-21T19:56:07;101815.28;;;1.29;92.25
10064;BME280;5071;52.360;13.134;2023-11-21T20:01:09;101816.53;;;1.17;92.32
10064;BME280;5071;52.360;13.134;2023-11-21T20:06:13;101823.88;;;1.05;95.02
10064;BME280;5071;52.360;13.134;2023-11-21T20:11:19;101820.38;;;0.85;93.99
10064;BME280;5071;52.360;13.134;2023-11-21T20:16:21;101834.66;;;0.93;95.37
10064;BME280;5071;52.360;13.134;2023-11-21T20:21:24;101839.69;;;0.89;95.23
10064;BME280;5071;52.360;13.134;2023-11-21T20:26:26;101838.66;;;0.85;96.13
10064;BME280;5071;52.360;13.134;2023-11-21T20:31:28;101850.69;;;0.82;96.71
10064;BME280;5071;52.360;13.134;2023-11-21T20:36:33;101860.28;;;0.44;96.65
10064;BME280;5071;52.360;13.134;2023-11-21T20:41:36;101864.84;;;0.67;97.63
10064;BME280;5071;52.360;13.134;2023-11-21T20:46:39;101879.88;;;0.91;96.14
10064;BME280;5071;52.360;13.134;2023-11-21T20:51:43;101879.88;;;0.91;94.98
10064;BME280;5071;52.360;13.134;2023-11-21T20:56:45;101891.63;;;0.81;95.92
10064;BME280;5071;52.360;13.134;2023-11-21T21:01:48;101897.72;;;0.62;98.37
10064;BME280;5071;52.360;13.134;2023-11-21T21:06:52;101896.72;;;0.60;99.25
10064;BME280;5071;52.360;13.134;2023-11-21T21:11:54;101903.56;;;0.38;100.00
10064;BME280;5071;52.360;13.134;2023-11-21T21:16:56;101899.59;;;0.47;100.00
10064;BME280;5071;52.360;13.134;2023-11-21T21:22:00;101897.53;;;0.40;100.00
10064;BME280;5071;52.360;13.134;2023-11-21T21:27:03;101898.34;;;0.38;100.00
10064;BME280;5071;52.360;13.134;2023-11-21T21:32:05;101913.84;;;0.35;100.00
10064;BME280;5071;52.360;13.134;2023-11-21T21:37:09;101927.41;;;0.64;98.10
10064;BME280;5071;52.360;13.134;2023-11-21T21:42:11;101929.81;;;0.60;98.70
10064;BME280;5071;52.360;13.134;2023-11-21T21:47:13;101942.66;;;0.55;98.54
10064;BME280;5071;52.360;13.134;2023-11-21T21:52:16;101938.47;;;0.41;99.45
10064;BME280;5071;52.360;13.134;2023-11-21T21:57:18;101938.19;;;-0.02;100.00
10064;BME280;5071;52.360;13.134;2023-11-21T22:02:20;101931.53;;;-0.13;100.00
10064;BME280;5071;52.360;13.134;2023-11-21T22:07:24;101950.22;;;-0.22;100.00
10064;BME280;5071;52.360;13.134;2023-11-21T22:12:26;101953.19;;;-0.14;100.00
10064;BME280;5071;52.360;13.134;2023-11-21T22:17:28;101935.31;;;-0.41;100.00
10064;BME280;5071;52.360;13.134;2023-11-21T22:22:32;101948.47;;;-0.55;100.00
10064;BME280;5071;52.360;13.134;2023-11-21T22:27:34;101964.50;;;-0.64;100.00
10064;BME280;5071;52.360;13.134;2023-11-21T22:32:36;101964.91;;;-0.40;100.00
10064;BME280;5071;52.360;13.134;2023-11-21T22:37:39;101976.47;;;-0.18;100.00
10064;BME280;5071;52.360;13.134;2023-11-21T22:42:42;101973.91;;;-0.17;100.00
10064;BME280;5071;52.360;13.134;2023-11-21T22:47:43;101975.78;;;-0.65;100.00
10064;BME280;5071;52.360;13.134;2023-11-21T22:52:47;101978.03;;;-0.71;100.00
10064;BME280;5071;52.360;13.134;2023-11-21T22:57:49;101997.53;;;-0.48;100.00
10064;BME280;5071;52.360;13.134;2023-11-21T23:02:51;101997.75;;;-0.44;100.00
10064;BME280;5071;52.360;13.134;2023-11-21T23:07:56;102014.81;;;-0.50;100.00
10064;BME280;5071;52.360;13.134;2023-11-21T23:12:57;102002.31;;;-0.40;100.00
10064;BME280;5071;52.360;13.134;2023-11-21T23:18:00;102006.25;;;-0.31;100.00
10064;BME280;5071;52.360;13.134;2023-11-21T23:23:03;102022.38;;;-0.22;100.00
10064;BME280;5071;52.360;13.134;2023-11-21T23:28:05;102026.66;;;-0.23;99.45
10064;BME280;5071;52.360;13.134;2023-11-21T23:33:07;102026.75;;;-0.21;100.00
10064;BME280;5071;52.360;13.134;2023-11-21T23:38:10;102028.22;;;-0.10;100.00
10064;BME280;5071;52.360;13.134;2023-11-21T23:43:13;102033.63;;;-0.23;100.00
10064;BME280;5071;52.360;13.134;2023-11-21T23:48:15;102036.69;;;-0.14;100.00
10064;BME280;5071;52.360;13.134;2023-11-21T23:53:19;102037.19;;;-0.21;98.63
10064;BME280;5071;52.360;13.134;2023-11-21T23:58:20;102034.25;;;0.06;98.41
